sensor_id;sensor_type;location;lat;lon;timestamp;P1;durP1;ratioP1;P2;durP2;ratioP2
20535;SDS011;10426;49.420;8.390;2022-08-05T00:01:39;4.45;;;1.80;;
20535;SDS011;10426;49.420;8.390;2022-08-05T00:04:06;5.35;;;2.17;;
20535;SDS011;10426;49.420;8.390;2022-08-05T00:06:33;6.77;;;2.47;;
20535;SDS011;10426;49.420;8.390;2022-08-05T00:08:59;7.97;;;2.35;;
20535;SDS011;10426;49.420;8.390;2022-08-05T00:11:26;7.32;;;2.40;;
20535;SDS011;10426;49.420;8.390;2022-08-05T00:13:53;9.15;;;2.38;;
20535;SDS011;10426;49.420;8.390;2022-08-05T00:16:20;4.88;;;2.10;;
20535;SDS011;10426;49.420;8.390;2022-08-05T00:18:48;8.10;;;2.50;;
20535;SDS011;10426;49.420;8.390;2022-08-05T00:21:15;5.93;;;2.70;;
20535;SDS011;10426;49.420;8.390;2022-08-05T00:23:42;4.53;;;2.28;;
20535;SDS011;10426;49.420;8.390;2022-08-05T00:26:09;8.95;;;3.03;;
20535;SDS011;10426;49.420;8.390;2022-08-05T00:28:36;4.78;;;2.50;;
20535;SDS011;10426;49.420;8.390;2022-08-05T00:31:03;5.07;;;2.45;;
20535;SDS011;10426;49.420;8.390;2022-08-05T00:33:30;7.53;;;2.90;;
20535;SDS011;10426;49.420;8.390;2022-08-05T00:35:59;6.45;;;3.13;;
20535;SDS011;10426;49.420;8.390;2022-08-05T00:38:26;4.17;;;2.90;;
20535;SDS011;10426;49.420;8.390;2022-08-05T00:40:53;3.90;;;2.97;;
20535;SDS011;10426;49.420;8.390;2022-08-05T00:43:20;6.30;;;3.40;;
20535;SDS011;10426;49.420;8.390;2022-08-05T00:45:47;6.50;;;3.00;;
20535;SDS011;10426;49.420;8.390;2022-08-05T00:48:15;3.10;;;2.90;;
20535;SDS011;10426;49.420;8.390;2022-08-05T00:50:43;5.43;;;2.90;;
20535;SDS011;10426;49.420;8.390;2022-08-05T00:53:11;4.85;;;2.92;;
20535;SDS011;10426;49.420;8.390;2022-08-05T00:55:38;4.20;;;3.15;;
20535;SDS011;10426;49.420;8.390;2022-08-05T00:58:05;8.23;;;3.30;;
20535;SDS011;10426;49.420;8.390;2022-08-05T01:00:32;3.38;;;2.90;;
20535;SDS011;10426;49.420;8.390;2022-08-05T01:02:58;4.70;;;3.20;;
20535;SDS011;10426;49.420;8.390;2022-08-05T01:05:25;6.43;;;3.25;;
20535;SDS011;10426;49.420;8.390;2022-08-05T01:07:52;5.68;;;3.20;;
20535;SDS011;10426;49.420;8.390;2022-08-05T01:10:21;4.82;;;3.58;;
20535;SDS011;10426;49.420;8.390;2022-08-05T01:12:50;4.53;;;3.30;;
20535;SDS011;10426;49.420;8.390;2022-08-05T01:15:19;7.50;;;3.35;;
20535;SDS011;10426;49.420;8.390;2022-08-05T01:17:48;4.35;;;3.63;;
20535;SDS011;10426;49.420;8.390;2022-08-05T01:20:18;4.88;;;3.08;;
20535;SDS011;10426;49.420;8.390;2022-08-05T01:22:54;3.67;;;3.15;;
20535;SDS011;10426;49.420;8.390;2022-08-05T01:25:36;4.97;;;3.30;;
20535;SDS011;10426;49.420;8.390;2022-08-05T01:28:15;5.83;;;3.33;;
20535;SDS011;10426;49.420;8.390;2022-08-05T01:30:43;5.38;;;3.22;;
20535;SDS011;10426;49.420;8.390;2022-08-05T01:33:11;5.47;;;3.35;;
20535;SDS011;10426;49.420;8.390;2022-08-05T01:35:40;3.75;;;3.28;;
20535;SDS011;10426;49.420;8.390;2022-08-05T01:38:08;4.22;;;3.40;;
20535;SDS011;10426;49.420;8.390;2022-08-05T01:40:35;4.85;;;3.42;;
20535;SDS011;10426;49.420;8.390;2022-08-05T01:43:03;3.63;;;3.28;;
20535;SDS011;10426;49.420;8.390;2022-08-05T01:45:32;3.40;;;3.10;;
20535;SDS011;10426;49.420;8.390;2022-08-05T01:47:59;4.78;;;3.00;;
20535;SDS011;10426;49.420;8.390;2022-08-05T01:50:28;4.30;;;3.10;;
20535;SDS011;10426;49.420;8.390;2022-08-05T01:52:57;3.13;;;2.75;;
20535;SDS011;10426;49.420;8.390;2022-08-05T01:55:25;4.25;;;2.90;;
20535;SDS011;10426;49.420;8.390;2022-08-05T01:57:54;3.08;;;2.80;;
20535;SDS011;10426;49.420;8.390;2022-08-05T02:00:23;3.22;;;2.78;;
20535;SDS011;10426;49.420;8.390;2022-08-05T02:02:55;3.00;;;2.80;;
20535;SDS011;10426;49.420;8.390;2022-08-05T02:05:24;2.85;;;2.65;;
20535;SDS011;10426;49.420;8.390;2022-08-05T02:07:53;4.32;;;3.08;;
20535;SDS011;10426;49.420;8.390;2022-08-05T02:10:20;2.80;;;2.50;;
20535;SDS011;10426;49.420;8.390;2022-08-05T02:12:48;4.03;;;2.40;;
20535;SDS011;10426;49.420;8.390;2022-08-05T02:15:19;5.20;;;2.95;;
20535;SDS011;10426;49.420;8.390;2022-08-05T02:17:48;3.78;;;2.83;;
20535;SDS011;10426;49.420;8.390;2022-08-05T02:20:18;7.25;;;2.90;;
20535;SDS011;10426;49.420;8.390;2022-08-05T02:22:45;2.90;;;2.70;;
20535;SDS011;10426;49.420;8.390;2022-08-05T02:25:23;3.17;;;2.88;;
20535;SDS011;10426;49.420;8.390;2022-08-05T02:27:50;2.80;;;2.60;;
20535;SDS011;10426;49.420;8.390;2022-08-05T02:30:17;3.10;;;2.80;;
20535;SDS011;10426;49.420;8.390;2022-08-05T02:32:46;3.67;;;3.08;;
20535;SDS011;10426;49.420;8.390;2022-08-05T02:35:14;3.00;;;2.80;;
20535;SDS011;10426;49.420;8.390;2022-08-05T02:37:43;5.38;;;3.05;;
20535;SDS011;10426;49.420;8.390;2022-08-05T02:40:11;3.08;;;2.78;;
20535;SDS011;10426;49.420;8.390;2022-08-05T02:42:38;3.80;;;2.92;;
20535;SDS011;10426;49.420;8.390;2022-08-05T02:45:05;5.25;;;2.88;;
20535;SDS011;10426;49.420;8.390;2022-08-05T02:47:33;4.93;;;3.08;;
20535;SDS011;10426;49.420;8.390;2022-08-05T02:50:01;2.97;;;2.63;;
20535;SDS011;10426;49.420;8.390;2022-08-05T02:52:28;3.28;;;2.90;;
20535;SDS011;10426;49.420;8.390;2022-08-05T02:54:56;3.00;;;2.70;;
20535;SDS011;10426;49.420;8.390;2022-08-05T02:57:23;3.13;;;2.70;;
20535;SDS011;10426;49.420;8.390;2022-08-05T02:59:50;3.78;;;2.70;;
20535;SDS011;10426;49.420;8.390;2022-08-05T03:02:18;2.78;;;2.58;;
20535;SDS011;10426;49.420;8.390;2022-08-05T03:04:45;4.10;;;2.92;;
20535;SDS011;10426;49.420;8.390;2022-08-05T03:07:12;3.80;;;3.08;;
20535;SDS011;10426;49.420;8.390;2022-08-05T03:09:40;3.30;;;2.70;;
20535;SDS011;10426;49.420;8.390;2022-08-05T03:12:09;3.00;;;2.80;;
20535;SDS011;10426;49.420;8.390;2022-08-05T03:14:35;3.07;;;2.60;;
20535;SDS011;10426;49.420;8.390;2022-08-05T03:17:02;2.78;;;2.58;;
20535;SDS011;10426;49.420;8.390;2022-08-05T03:19:29;3.15;;;2.80;;
20535;SDS011;10426;49.420;8.390;2022-08-05T03:21:55;4.22;;;2.83;;
20535;SDS011;10426;49.420;8.390;2022-08-05T03:24:22;3.93;;;3.00;;
20535;SDS011;10426;49.420;8.390;2022-08-05T03:26:49;3.17;;;2.65;;
20535;SDS011;10426;49.420;8.390;2022-08-05T03:29:17;2.92;;;2.72;;
20535;SDS011;10426;49.420;8.390;2022-08-05T03:31:43;5.15;;;3.00;;
20535;SDS011;10426;49.420;8.390;2022-08-05T03:34:10;3.58;;;2.80;;
20535;SDS011;10426;49.420;8.390;2022-08-05T03:36:37;3.10;;;2.83;;
20535;SDS011;10426;49.420;8.390;2022-08-05T03:39:06;4.05;;;2.90;;
20535;SDS011;10426;49.420;8.390;2022-08-05T03:41:33;3.65;;;3.30;;
20535;SDS011;10426;49.420;8.390;2022-08-05T03:44:00;5.43;;;3.70;;
20535;SDS011;10426;49.420;8.390;2022-08-05T03:46:28;5.28;;;3.70;;
20535;SDS011;10426;49.420;8.390;2022-08-05T03:48:54;4.38;;;3.42;;
20535;SDS011;10426;49.420;8.390;2022-08-05T03:51:23;3.60;;;3.30;;
20535;SDS011;10426;49.420;8.390;2022-08-05T03:53:54;4.00;;;3.00;;
20535;SDS011;10426;49.420;8.390;2022-08-05T03:56:24;2.30;;;2.20;;
20535;SDS011;10426;49.420;8.390;2022-08-05T03:58:52;3.60;;;2.00;;
20535;SDS011;10426;49.420;8.390;2022-08-05T04:01:20;2.92;;;1.83;;
20535;SDS011;10426;49.420;8.390;2022-08-05T04:03:49;2.03;;;1.92;;
20535;SDS011;10426;49.420;8.390;2022-08-05T04:06:17;2.00;;;1.80;;
20535;SDS011;10426;49.420;8.390;2022-08-05T04:08:44;1.90;;;1.80;;
20535;SDS011;10426;49.420;8.390;2022-08-05T04:11:11;2.35;;;1.77;;
20535;SDS011;10426;49.420;8.390;2022-08-05T04:13:38;2.40;;;1.90;;
20535;SDS011;10426;49.420;8.390;2022-08-05T04:16:06;2.05;;;1.90;;
20535;SDS011;10426;49.420;8.390;2022-08-05T04:18:33;1.95;;;1.83;;
20535;SDS011;10426;49.420;8.390;2022-08-05T04:21:01;2.10;;;1.90;;
20535;SDS011;10426;49.420;8.390;2022-08-05T04:23:28;3.08;;;2.10;;
20535;SDS011;10426;49.420;8.390;2022-08-05T04:25:55;2.15;;;2.03;;
20535;SDS011;10426;49.420;8.390;2022-08-05T04:28:21;2.37;;;2.17;;
20535;SDS011;10426;49.420;8.390;2022-08-05T04:30:48;3.47;;;1.80;;
20535;SDS011;10426;49.420;8.390;2022-08-05T04:33:15;2.90;;;1.90;;
20535;SDS011;10426;49.420;8.390;2022-08-05T04:35:42;2.30;;;1.70;;
20535;SDS011;10426;49.420;8.390;2022-08-05T04:38:10;3.05;;;1.98;;
20535;SDS011;10426;49.420;8.390;2022-08-05T04:40:37;1.95;;;1.85;;
20535;SDS011;10426;49.420;8.390;2022-08-05T04:43:04;1.90;;;1.80;;
20535;SDS011;10426;49.420;8.390;2022-08-05T04:45:31;2.17;;;1.90;;
20535;SDS011;10426;49.420;8.390;2022-08-05T04:48:04;3.13;;;1.90;;
20535;SDS011;10426;49.420;8.390;2022-08-05T04:50:36;2.00;;;1.70;;
20535;SDS011;10426;49.420;8.390;2022-08-05T04:53:03;2.15;;;1.90;;
20535;SDS011;10426;49.420;8.390;2022-08-05T04:55:31;2.17;;;1.83;;
20535;SDS011;10426;49.420;8.390;2022-08-05T04:57:58;2.78;;;2.00;;
20535;SDS011;10426;49.420;8.390;2022-08-05T05:00:25;2.03;;;1.70;;
20535;SDS011;10426;49.420;8.390;2022-08-05T05:02:51;2.15;;;1.95;;
20535;SDS011;10426;49.420;8.390;2022-08-05T05:05:18;2.00;;;1.90;;
20535;SDS011;10426;49.420;8.390;2022-08-05T05:07:45;1.90;;;1.80;;
20535;SDS011;10426;49.420;8.390;2022-08-05T05:10:11;1.90;;;1.80;;
20535;SDS011;10426;49.420;8.390;2022-08-05T05:12:39;2.00;;;1.90;;
20535;SDS011;10426;49.420;8.390;2022-08-05T05:15:07;2.17;;;1.77;;
20535;SDS011;10426;49.420;8.390;2022-08-05T05:17:37;2.47;;;1.70;;
20535;SDS011;10426;49.420;8.390;2022-08-05T05:20:05;2.90;;;2.00;;
20535;SDS011;10426;49.420;8.390;2022-08-05T05:22:31;2.13;;;1.88;;
20535;SDS011;10426;49.420;8.390;2022-08-05T05:24:58;2.20;;;2.00;;
20535;SDS011;10426;49.420;8.390;2022-08-05T05:27:25;1.90;;;1.80;;
20535;SDS011;10426;49.420;8.390;2022-08-05T05:29:53;2.22;;;2.03;;
20535;SDS011;10426;49.420;8.390;2022-08-05T05:32:19;2.00;;;1.90;;
20535;SDS011;10426;49.420;8.390;2022-08-05T05:34:46;3.28;;;1.80;;
20535;SDS011;10426;49.420;8.390;2022-08-05T05:37:13;2.10;;;1.83;;
20535;SDS011;10426;49.420;8.390;2022-08-05T05:39:40;2.00;;;1.80;;
20535;SDS011;10426;49.420;8.390;2022-08-05T05:42:06;1.95;;;1.65;;
20535;SDS011;10426;49.420;8.390;2022-08-05T05:44:33;1.92;;;1.83;;
20535;SDS011;10426;49.420;8.390;2022-08-05T05:47:01;1.90;;;1.80;;
20535;SDS011;10426;49.420;8.390;2022-08-05T05:49:28;2.08;;;1.92;;
20535;SDS011;10426;49.420;8.390;2022-08-05T05:51:54;3.73;;;1.77;;
20535;SDS011;10426;49.420;8.390;2022-08-05T05:54:21;2.10;;;1.90;;
20535;SDS011;10426;49.420;8.390;2022-08-05T05:56:48;2.10;;;1.90;;
20535;SDS011;10426;49.420;8.390;2022-08-05T05:59:15;3.37;;;2.03;;
20535;SDS011;10426;49.420;8.390;2022-08-05T06:01:41;2.00;;;1.90;;
20535;SDS011;10426;49.420;8.390;2022-08-05T06:04:10;2.85;;;2.00;;
20535;SDS011;10426;49.420;8.390;2022-08-05T06:06:36;3.13;;;2.10;;
20535;SDS011;10426;49.420;8.390;2022-08-05T06:09:03;2.05;;;1.85;;
20535;SDS011;10426;49.420;8.390;2022-08-05T06:11:30;2.13;;;1.90;;
20535;SDS011;10426;49.420;8.390;2022-08-05T06:13:57;2.15;;;2.00;;
20535;SDS011;10426;49.420;8.390;2022-08-05T06:16:24;2.55;;;1.70;;
20535;SDS011;10426;49.420;8.390;2022-08-05T06:18:50;1.98;;;1.88;;
20535;SDS011;10426;49.420;8.390;2022-08-05T06:21:19;2.58;;;2.00;;
20535;SDS011;10426;49.420;8.390;2022-08-05T06:23:45;2.55;;;1.90;;
20535;SDS011;10426;49.420;8.390;2022-08-05T06:26:12;4.25;;;1.77;;
20535;SDS011;10426;49.420;8.390;2022-08-05T06:28:39;3.58;;;1.85;;
20535;SDS011;10426;49.420;8.390;2022-08-05T06:31:06;2.28;;;1.98;;
20535;SDS011;10426;49.420;8.390;2022-08-05T06:33:32;2.20;;;1.97;;
20535;SDS011;10426;49.420;8.390;2022-08-05T06:35:59;2.33;;;1.77;;
20535;SDS011;10426;49.420;8.390;2022-08-05T06:38:27;1.80;;;1.70;;
20535;SDS011;10426;49.420;8.390;2022-08-05T06:40:53;3.00;;;1.90;;
20535;SDS011;10426;49.420;8.390;2022-08-05T06:43:20;2.33;;;2.10;;
20535;SDS011;10426;49.420;8.390;2022-08-05T06:45:47;2.00;;;1.90;;
20535;SDS011;10426;49.420;8.390;2022-08-05T06:48:14;2.72;;;1.80;;
20535;SDS011;10426;49.420;8.390;2022-08-05T06:50:40;3.83;;;2.20;;
20535;SDS011;10426;49.420;8.390;2022-08-05T06:53:07;3.90;;;1.75;;
20535;SDS011;10426;49.420;8.390;2022-08-05T06:55:35;1.60;;;1.50;;
20535;SDS011;10426;49.420;8.390;2022-08-05T06:58:01;2.25;;;1.75;;
20535;SDS011;10426;49.420;8.390;2022-08-05T07:00:28;1.90;;;1.70;;
20535;SDS011;10426;49.420;8.390;2022-08-05T07:02:56;1.83;;;1.65;;
20535;SDS011;10426;49.420;8.390;2022-08-05T07:05:23;2.35;;;1.90;;
20535;SDS011;10426;49.420;8.390;2022-08-05T07:07:49;2.20;;;1.80;;
20535;SDS011;10426;49.420;8.390;2022-08-05T07:10:16;1.70;;;1.60;;
20535;SDS011;10426;49.420;8.390;2022-08-05T07:12:44;1.83;;;1.70;;
20535;SDS011;10426;49.420;8.390;2022-08-05T07:15:28;1.92;;;1.83;;
20535;SDS011;10426;49.420;8.390;2022-08-05T07:18:12;1.65;;;1.60;;
20535;SDS011;10426;49.420;8.390;2022-08-05T07:20:38;2.00;;;1.80;;
20535;SDS011;10426;49.420;8.390;2022-08-05T07:23:05;1.70;;;1.70;;
20535;SDS011;10426;49.420;8.390;2022-08-05T07:25:32;1.80;;;1.70;;
20535;SDS011;10426;49.420;8.390;2022-08-05T07:28:00;1.70;;;1.60;;
20535;SDS011;10426;49.420;8.390;2022-08-05T07:30:27;2.15;;;1.58;;
20535;SDS011;10426;49.420;8.390;2022-08-05T07:32:53;1.33;;;1.30;;
20535;SDS011;10426;49.420;8.390;2022-08-05T07:35:20;1.70;;;1.60;;
20535;SDS011;10426;49.420;8.390;2022-08-05T07:37:47;2.28;;;1.60;;
20535;SDS011;10426;49.420;8.390;2022-08-05T07:40:13;1.50;;;1.50;;
20535;SDS011;10426;49.420;8.390;2022-08-05T07:42:40;1.27;;;1.27;;
20535;SDS011;10426;49.420;8.390;2022-08-05T07:45:09;1.40;;;1.30;;
20535;SDS011;10426;49.420;8.390;2022-08-05T07:47:36;1.50;;;1.40;;
20535;SDS011;10426;49.420;8.390;2022-08-05T07:50:02;2.67;;;1.60;;
20535;SDS011;10426;49.420;8.390;2022-08-05T07:52:29;1.38;;;1.30;;
20535;SDS011;10426;49.420;8.390;2022-08-05T07:54:56;1.33;;;1.30;;
20535;SDS011;10426;49.420;8.390;2022-08-05T07:57:22;2.30;;;1.50;;
20535;SDS011;10426;49.420;8.390;2022-08-05T07:59:49;4.82;;;1.50;;
20535;SDS011;10426;49.420;8.390;2022-08-05T08:02:21;1.35;;;1.35;;
20535;SDS011;10426;49.420;8.390;2022-08-05T08:04:48;1.60;;;1.50;;
20535;SDS011;10426;49.420;8.390;2022-08-05T08:07:15;1.50;;;1.48;;
20535;SDS011;10426;49.420;8.390;2022-08-05T08:09:42;1.60;;;1.50;;
20535;SDS011;10426;49.420;8.390;2022-08-05T08:12:09;2.40;;;1.50;;
20535;SDS011;10426;49.420;8.390;2022-08-05T08:14:37;2.38;;;1.48;;
20535;SDS011;10426;49.420;8.390;2022-08-05T08:17:04;1.30;;;1.30;;
20535;SDS011;10426;49.420;8.390;2022-08-05T08:19:36;1.45;;;1.30;;
20535;SDS011;10426;49.420;8.390;2022-08-05T08:22:03;1.48;;;1.48;;
20535;SDS011;10426;49.420;8.390;2022-08-05T08:24:29;1.33;;;1.23;;
20535;SDS011;10426;49.420;8.390;2022-08-05T08:26:56;1.40;;;1.40;;
20535;SDS011;10426;49.420;8.390;2022-08-05T08:29:23;1.47;;;1.43;;
20535;SDS011;10426;49.420;8.390;2022-08-05T08:31:50;1.50;;;1.40;;
20535;SDS011;10426;49.420;8.390;2022-08-05T08:34:17;1.90;;;1.38;;
20535;SDS011;10426;49.420;8.390;2022-08-05T08:36:46;1.50;;;1.40;;
20535;SDS011;10426;49.420;8.390;2022-08-05T08:39:13;1.25;;;1.25;;
20535;SDS011;10426;49.420;8.390;2022-08-05T08:41:42;1.70;;;1.60;;
20535;SDS011;10426;49.420;8.390;2022-08-05T08:44:09;2.50;;;1.60;;
20535;SDS011;10426;49.420;8.390;2022-08-05T08:46:36;1.50;;;1.40;;
20535;SDS011;10426;49.420;8.390;2022-08-05T08:49:03;1.58;;;1.45;;
20535;SDS011;10426;49.420;8.390;2022-08-05T08:51:31;1.50;;;1.40;;
20535;SDS011;10426;49.420;8.390;2022-08-05T08:53:59;1.90;;;1.50;;
20535;SDS011;10426;49.420;8.390;2022-08-05T08:56:26;3.10;;;1.42;;
20535;SDS011;10426;49.420;8.390;2022-08-05T08:58:53;1.58;;;1.48;;
20535;SDS011;10426;49.420;8.390;2022-08-05T09:01:23;3.90;;;1.60;;
20535;SDS011;10426;49.420;8.390;2022-08-05T09:03:51;1.63;;;1.50;;
20535;SDS011;10426;49.420;8.390;2022-08-05T09:06:18;1.63;;;1.52;;
20535;SDS011;10426;49.420;8.390;2022-08-05T09:08:44;2.40;;;1.60;;
20535;SDS011;10426;49.420;8.390;2022-08-05T09:11:16;2.00;;;1.65;;
20535;SDS011;10426;49.420;8.390;2022-08-05T09:13:43;1.65;;;1.55;;
20535;SDS011;10426;49.420;8.390;2022-08-05T09:16:11;1.42;;;1.40;;
20535;SDS011;10426;49.420;8.390;2022-08-05T09:18:37;1.17;;;1.17;;
20535;SDS011;10426;49.420;8.390;2022-08-05T09:21:04;2.00;;;1.20;;
20535;SDS011;10426;49.420;8.390;2022-08-05T09:23:31;1.30;;;1.20;;
20535;SDS011;10426;49.420;8.390;2022-08-05T09:26:05;1.10;;;1.10;;
20535;SDS011;10426;49.420;8.390;2022-08-05T09:28:33;1.30;;;1.20;;
20535;SDS011;10426;49.420;8.390;2022-08-05T09:31:02;1.50;;;1.40;;
20535;SDS011;10426;49.420;8.390;2022-08-05T09:33:30;1.40;;;1.30;;
20535;SDS011;10426;49.420;8.390;2022-08-05T09:35:57;1.00;;;1.00;;
20535;SDS011;10426;49.420;8.390;2022-08-05T09:38:24;1.30;;;1.30;;
20535;SDS011;10426;49.420;8.390;2022-08-05T09:40:52;1.50;;;1.40;;
20535;SDS011;10426;49.420;8.390;2022-08-05T09:43:27;1.48;;;1.38;;
20535;SDS011;10426;49.420;8.390;2022-08-05T09:45:55;2.28;;;1.42;;
20535;SDS011;10426;49.420;8.390;2022-08-05T09:48:23;1.50;;;1.35;;
20535;SDS011;10426;49.420;8.390;2022-08-05T09:50:54;1.55;;;1.48;;
20535;SDS011;10426;49.420;8.390;2022-08-05T09:53:22;1.30;;;1.30;;
20535;SDS011;10426;49.420;8.390;2022-08-05T09:55:53;1.60;;;1.50;;
20535;SDS011;10426;49.420;8.390;2022-08-05T09:58:19;1.50;;;1.40;;
20535;SDS011;10426;49.420;8.390;2022-08-05T10:00:53;1.35;;;1.30;;
20535;SDS011;10426;49.420;8.390;2022-08-05T10:03:21;1.45;;;1.45;;
20535;SDS011;10426;49.420;8.390;2022-08-05T10:05:59;2.80;;;1.30;;
20535;SDS011;10426;49.420;8.390;2022-08-05T10:08:26;1.40;;;1.40;;
20535;SDS011;10426;49.420;8.390;2022-08-05T10:10:52;1.30;;;1.30;;
20535;SDS011;10426;49.420;8.390;2022-08-05T10:13:26;1.60;;;1.50;;
20535;SDS011;10426;49.420;8.390;2022-08-05T10:15:52;1.30;;;1.30;;
20535;SDS011;10426;49.420;8.390;2022-08-05T10:18:21;1.57;;;1.57;;
20535;SDS011;10426;49.420;8.390;2022-08-05T10:20:48;1.73;;;1.63;;
20535;SDS011;10426;49.420;8.390;2022-08-05T10:23:16;1.50;;;1.40;;
20535;SDS011;10426;49.420;8.390;2022-08-05T10:25:43;1.53;;;1.43;;
20535;SDS011;10426;49.420;8.390;2022-08-05T10:28:10;1.40;;;1.30;;
20535;SDS011;10426;49.420;8.390;2022-08-05T10:30:37;1.60;;;1.50;;
20535;SDS011;10426;49.420;8.390;2022-08-05T10:33:04;1.73;;;1.73;;
20535;SDS011;10426;49.420;8.390;2022-08-05T10:35:33;1.80;;;1.70;;
20535;SDS011;10426;49.420;8.390;2022-08-05T10:37:59;1.53;;;1.50;;
20535;SDS011;10426;49.420;8.390;2022-08-05T10:40:28;1.90;;;1.80;;
20535;SDS011;10426;49.420;8.390;2022-08-05T10:42:58;1.80;;;1.70;;
20535;SDS011;10426;49.420;8.390;2022-08-05T10:45:27;2.40;;;1.95;;
20535;SDS011;10426;49.420;8.390;2022-08-05T10:47:54;1.70;;;1.60;;
20535;SDS011;10426;49.420;8.390;2022-08-05T10:50:21;3.22;;;1.80;;
20535;SDS011;10426;49.420;8.390;2022-08-05T10:52:50;1.70;;;1.60;;
20535;SDS011;10426;49.420;8.390;2022-08-05T10:55:21;1.80;;;1.70;;
20535;SDS011;10426;49.420;8.390;2022-08-05T10:57:48;1.92;;;1.77;;
20535;SDS011;10426;49.420;8.390;2022-08-05T11:00:31;1.60;;;1.60;;
20535;SDS011;10426;49.420;8.390;2022-08-05T11:03:08;2.80;;;1.70;;
20535;SDS011;10426;49.420;8.390;2022-08-05T11:05:35;1.73;;;1.63;;
20535;SDS011;10426;49.420;8.390;2022-08-05T11:08:04;1.52;;;1.52;;
20535;SDS011;10426;49.420;8.390;2022-08-05T11:10:31;1.70;;;1.70;;
20535;SDS011;10426;49.420;8.390;2022-08-05T11:12:59;1.90;;;1.80;;
20535;SDS011;10426;49.420;8.390;2022-08-05T11:15:26;1.90;;;1.80;;
20535;SDS011;10426;49.420;8.390;2022-08-05T11:18:04;1.75;;;1.65;;
20535;SDS011;10426;49.420;8.390;2022-08-05T11:20:41;1.95;;;1.85;;
20535;SDS011;10426;49.420;8.390;2022-08-05T11:26:04;1.90;;;1.80;;
20535;SDS011;10426;49.420;8.390;2022-08-05T11:28:38;2.00;;;1.80;;
20535;SDS011;10426;49.420;8.390;2022-08-05T11:31:20;1.98;;;1.80;;
20535;SDS011;10426;49.420;8.390;2022-08-05T11:33:54;1.80;;;1.70;;
20535;SDS011;10426;49.420;8.390;2022-08-05T11:36:21;2.30;;;2.17;;
20535;SDS011;10426;49.420;8.390;2022-08-05T11:39:03;2.53;;;2.20;;
20535;SDS011;10426;49.420;8.390;2022-08-05T11:41:32;2.00;;;1.90;;
20535;SDS011;10426;49.420;8.390;2022-08-05T11:44:00;3.95;;;2.00;;
20535;SDS011;10426;49.420;8.390;2022-08-05T11:46:28;2.10;;;1.90;;
20535;SDS011;10426;49.420;8.390;2022-08-05T11:48:55;2.00;;;1.90;;
20535;SDS011;10426;49.420;8.390;2022-08-05T11:51:23;1.98;;;1.88;;
20535;SDS011;10426;49.420;8.390;2022-08-05T11:53:50;2.17;;;1.98;;
20535;SDS011;10426;49.420;8.390;2022-08-05T11:56:16;1.98;;;1.88;;
20535;SDS011;10426;49.420;8.390;2022-08-05T11:58:45;2.10;;;2.00;;
20535;SDS011;10426;49.420;8.390;2022-08-05T12:01:13;2.00;;;1.90;;
20535;SDS011;10426;49.420;8.390;2022-08-05T12:03:40;2.17;;;2.00;;
20535;SDS011;10426;49.420;8.390;2022-08-05T12:06:08;3.60;;;2.00;;
20535;SDS011;10426;49.420;8.390;2022-08-05T12:08:38;2.20;;;2.10;;
20535;SDS011;10426;49.420;8.390;2022-08-05T12:11:05;1.80;;;1.70;;
20535;SDS011;10426;49.420;8.390;2022-08-05T12:13:33;2.00;;;1.90;;
20535;SDS011;10426;49.420;8.390;2022-08-05T12:16:01;1.90;;;1.70;;
20535;SDS011;10426;49.420;8.390;2022-08-05T12:18:31;1.90;;;1.83;;
20535;SDS011;10426;49.420;8.390;2022-08-05T12:21:07;2.00;;;1.88;;
20535;SDS011;10426;49.420;8.390;2022-08-05T12:23:34;2.00;;;1.90;;
20535;SDS011;10426;49.420;8.390;2022-08-05T12:26:01;2.15;;;2.05;;
20535;SDS011;10426;49.420;8.390;2022-08-05T12:28:31;2.00;;;1.90;;
20535;SDS011;10426;49.420;8.390;2022-08-05T12:30:58;2.10;;;1.90;;
20535;SDS011;10426;49.420;8.390;2022-08-05T12:33:26;2.08;;;1.98;;
20535;SDS011;10426;49.420;8.390;2022-08-05T12:35:53;2.10;;;2.00;;
20535;SDS011;10426;49.420;8.390;2022-08-05T12:38:20;2.10;;;2.00;;
20535;SDS011;10426;49.420;8.390;2022-08-05T12:40:47;2.00;;;1.90;;
20535;SDS011;10426;49.420;8.390;2022-08-05T12:43:14;1.67;;;1.65;;
20535;SDS011;10426;49.420;8.390;2022-08-05T12:45:49;1.95;;;1.85;;
20535;SDS011;10426;49.420;8.390;2022-08-05T12:48:15;2.40;;;2.20;;
20535;SDS011;10426;49.420;8.390;2022-08-05T12:50:43;1.85;;;1.80;;
20535;SDS011;10426;49.420;8.390;2022-08-05T12:53:14;1.90;;;1.80;;
20535;SDS011;10426;49.420;8.390;2022-08-05T12:55:41;2.58;;;2.00;;
20535;SDS011;10426;49.420;8.390;2022-08-05T12:58:21;1.90;;;1.80;;
20535;SDS011;10426;49.420;8.390;2022-08-05T13:00:48;3.60;;;1.90;;
20535;SDS011;10426;49.420;8.390;2022-08-05T13:03:15;2.20;;;2.10;;
20535;SDS011;10426;49.420;8.390;2022-08-05T13:05:44;1.92;;;1.83;;
20535;SDS011;10426;49.420;8.390;2022-08-05T13:08:11;3.90;;;2.08;;
20535;SDS011;10426;49.420;8.390;2022-08-05T13:10:42;1.98;;;1.88;;
20535;SDS011;10426;49.420;8.390;2022-08-05T13:13:09;1.70;;;1.70;;
20535;SDS011;10426;49.420;8.390;2022-08-05T13:15:38;2.83;;;2.08;;
20535;SDS011;10426;49.420;8.390;2022-08-05T13:18:05;3.05;;;1.90;;
20535;SDS011;10426;49.420;8.390;2022-08-05T13:20:33;2.28;;;1.90;;
20535;SDS011;10426;49.420;8.390;2022-08-05T13:23:01;1.93;;;1.83;;
20535;SDS011;10426;49.420;8.390;2022-08-05T13:25:27;1.80;;;1.70;;
20535;SDS011;10426;49.420;8.390;2022-08-05T13:27:56;2.07;;;1.73;;
20535;SDS011;10426;49.420;8.390;2022-08-05T13:30:23;1.88;;;1.77;;
20535;SDS011;10426;49.420;8.390;2022-08-05T13:32:50;1.90;;;1.80;;
20535;SDS011;10426;49.420;8.390;2022-08-05T13:35:17;1.95;;;1.85;;
20535;SDS011;10426;49.420;8.390;2022-08-05T13:37:44;2.00;;;1.80;;
20535;SDS011;10426;49.420;8.390;2022-08-05T13:40:13;3.35;;;1.83;;
20535;SDS011;10426;49.420;8.390;2022-08-05T13:42:40;1.85;;;1.75;;
20535;SDS011;10426;49.420;8.390;2022-08-05T13:45:08;1.80;;;1.70;;
20535;SDS011;10426;49.420;8.390;2022-08-05T13:47:35;2.00;;;1.65;;
20535;SDS011;10426;49.420;8.390;2022-08-05T13:50:03;1.80;;;1.70;;
20535;SDS011;10426;49.420;8.390;2022-08-05T13:52:30;1.90;;;1.80;;
20535;SDS011;10426;49.420;8.390;2022-08-05T13:54:57;2.25;;;1.80;;
20535;SDS011;10426;49.420;8.390;2022-08-05T13:57:25;1.80;;;1.70;;
20535;SDS011;10426;49.420;8.390;2022-08-05T13:59:52;1.90;;;1.80;;
20535;SDS011;10426;49.420;8.390;2022-08-05T14:02:18;2.20;;;1.85;;
20535;SDS011;10426;49.420;8.390;2022-08-05T14:04:46;1.83;;;1.80;;
20535;SDS011;10426;49.420;8.390;2022-08-05T14:07:32;2.00;;;1.90;;
20535;SDS011;10426;49.420;8.390;2022-08-05T14:09:59;2.10;;;1.90;;
20535;SDS011;10426;49.420;8.390;2022-08-05T14:12:28;1.80;;;1.70;;
20535;SDS011;10426;49.420;8.390;2022-08-05T14:14:54;1.80;;;1.70;;
20535;SDS011;10426;49.420;8.390;2022-08-05T14:17:21;1.90;;;1.80;;
20535;SDS011;10426;49.420;8.390;2022-08-05T14:19:50;2.10;;;1.80;;
20535;SDS011;10426;49.420;8.390;2022-08-05T14:22:17;2.00;;;1.90;;
20535;SDS011;10426;49.420;8.390;2022-08-05T14:24:44;1.50;;;1.50;;
20535;SDS011;10426;49.420;8.390;2022-08-05T14:27:11;2.00;;;1.90;;
20535;SDS011;10426;49.420;8.390;2022-08-05T14:29:39;1.85;;;1.75;;
20535;SDS011;10426;49.420;8.390;2022-08-05T14:32:05;1.85;;;1.75;;
20535;SDS011;10426;49.420;8.390;2022-08-05T14:34:32;1.90;;;1.80;;
20535;SDS011;10426;49.420;8.390;2022-08-05T14:36:59;1.80;;;1.70;;
20535;SDS011;10426;49.420;8.390;2022-08-05T14:39:26;1.80;;;1.70;;
20535;SDS011;10426;49.420;8.390;2022-08-05T14:41:53;1.70;;;1.60;;
20535;SDS011;10426;49.420;8.390;2022-08-05T14:44:19;3.25;;;1.70;;
20535;SDS011;10426;49.420;8.390;2022-08-05T14:46:47;2.10;;;1.90;;
20535;SDS011;10426;49.420;8.390;2022-08-05T14:49:14;1.67;;;1.65;;
20535;SDS011;10426;49.420;8.390;2022-08-05T14:51:41;1.98;;;1.88;;
20535;SDS011;10426;49.420;8.390;2022-08-05T14:54:08;1.80;;;1.70;;
20535;SDS011;10426;49.420;8.390;2022-08-05T14:56:34;2.00;;;1.90;;